Time;durP1;ratioP1;P1;durP2;ratioP2;P2;SDS_P1;SDS_P2;PMS_P1;PMS_P2;Temp;Humidity;BMP_temperature;BMP_pressure;BME280_temperature;BME280_humidity;BME280_pressure;Samples;Min_cycle;Max_cycle;Signal;HPM_P1;HPM_P2
2022/07/29 00:00:44;;;;;;;2.08;1.83;;;;;;;;;;5094255;28;20205;-84
2022/07/29 00:03:11;;;;;;;2.92;2.25;;;;;;;;;;5074774;28;20248;-85
2022/07/29 00:05:39;;;;;;;2.70;2.17;;;;;;;;;;5094215;28;20220;-84
2022/07/29 00:08:06;;;;;;;3.10;2.15;;;;;;;;;;5093214;28;20734;-85
2022/07/29 00:10:33;;;;;;;4.28;2.08;;;;;;;;;;5094373;28;20577;-85
2022/07/29 00:13:00;;;;;;;2.25;1.83;;;;;;;;;;5093137;28;20259;-84
2022/07/29 00:15:29;;;;;;;2.65;2.03;;;;;;;;;;5113609;28;20204;-83
2022/07/29 00:17:56;;;;;;;2.25;1.98;;;;;;;;;;5116753;28;20220;-83
2022/07/29 00:20:23;;;;;;;3.92;1.80;;;;;;;;;;5117460;28;20223;-83
2022/07/29 00:22:50;;;;;;;2.30;2.10;;;;;;;;;;5116927;28;20229;-82
2022/07/29 00:25:17;;;;;;;4.55;2.00;;;;;;;;;;5117334;28;20275;-83
2022/07/29 00:27:45;;;;;;;4.63;1.70;;;;;;;;;;5117032;28;20247;-83
2022/07/29 00:30:12;;;;;;;2.42;2.00;;;;;;;;;;5116655;28;20222;-82
2022/07/29 00:32:41;;;;;;;2.75;2.17;;;;;;;;;;5116469;28;20239;-83
2022/07/29 00:37:53;;;;;;;3.25;2.00;;;;;;;;;;5094329;28;20254;-84
2022/07/29 00:40:20;;;;;;;2.20;2.00;;;;;;;;;;5095360;28;20625;-85
2022/07/29 00:42:48;;;;;;;3.35;1.67;;;;;;;;;;5094536;28;20319;-84
2022/07/29 00:45:15;;;;;;;6.78;1.92;;;;;;;;;;5093230;28;20236;-84
2022/07/29 00:47:44;;;;;;;3.30;1.60;;;;;;;;;;5093657;28;20228;-85
2022/07/29 00:50:13;;;;;;;4.47;1.80;;;;;;;;;;5093100;28;20192;-85
2022/07/29 00:52:41;;;;;;;1.70;1.60;;;;;;;;;;5092930;28;20239;-85
2022/07/29 00:55:09;;;;;;;5.43;2.35;;;;;;;;;;5095258;28;20232;-85
2022/07/29 00:57:37;;;;;;;3.53;1.77;;;;;;;;;;5093091;28;20230;-85
2022/07/29 01:00:07;;;;;;;3.65;1.50;;;;;;;;;;5086694;28;20200;-84
2022/07/29 01:02:34;;;;;;;3.30;1.85;;;;;;;;;;5092782;28;20228;-84
2022/07/29 01:05:02;;;;;;;3.13;1.73;;;;;;;;;;5088469;28;20268;-85
2022/07/29 01:07:30;;;;;;;2.15;1.80;;;;;;;;;;5092121;28;20231;-85
2022/07/29 01:09:58;;;;;;;1.92;1.50;;;;;;;;;;5092980;28;20657;-85
2022/07/29 01:12:26;;;;;;;2.10;1.50;;;;;;;;;;5092432;28;20240;-86
2022/07/29 01:14:53;;;;;;;4.43;1.73;;;;;;;;;;5093668;28;20232;-85
2022/07/29 01:17:22;;;;;;;3.60;1.95;;;;;;;;;;5092729;28;20229;-85
2022/07/29 01:19:52;;;;;;;2.08;1.90;;;;;;;;;;5093104;28;20204;-85
2022/07/29 01:22:26;;;;;;;1.58;1.48;;;;;;;;;;5084994;28;20244;-85
2022/07/29 01:25:14;;;;;;;4.38;1.75;;;;;;;;;;5092288;28;20267;-85
2022/07/29 01:27:50;;;;;;;2.80;2.30;;;;;;;;;;5090812;28;20233;-85
2022/07/29 01:30:18;;;;;;;1.55;1.45;;;;;;;;;;5096257;28;20211;-85
2022/07/29 01:32:48;;;;;;;3.45;1.38;;;;;;;;;;5096262;28;20606;-85
2022/07/29 01:35:22;;;;;;;2.03;1.63;;;;;;;;;;5095482;28;20224;-84
2022/07/29 01:37:51;;;;;;;1.50;1.40;;;;;;;;;;5093630;28;20230;-84
2022/07/29 01:40:22;;;;;;;3.97;1.60;;;;;;;;;;5094523;28;20208;-85
2022/07/29 01:42:50;;;;;;;2.78;1.63;;;;;;;;;;5094293;28;20235;-85
2022/07/29 01:45:21;;;;;;;2.25;2.05;;;;;;;;;;5097104;28;20228;-85
2022/07/29 01:47:52;;;;;;;3.22;1.75;;;;;;;;;;5096408;28;20302;-85
2022/07/29 01:50:21;;;;;;;5.90;1.60;;;;;;;;;;5096716;28;20211;-86
2022/07/29 01:52:48;;;;;;;1.63;1.52;;;;;;;;;;5095341;28;20232;-85
2022/07/29 01:55:17;;;;;;;2.72;1.67;;;;;;;;;;5095323;28;20239;-84
2022/07/29 01:57:47;;;;;;;6.68;1.50;;;;;;;;;;5095098;28;20708;-85
2022/07/29 02:00:15;;;;;;;3.25;1.80;;;;;;;;;;5095850;28;20208;-85
2022/07/29 02:02:45;;;;;;;3.75;1.70;;;;;;;;;;5095646;28;20259;-85
2022/07/29 02:05:12;;;;;;;3.78;2.00;;;;;;;;;;5096933;28;20229;-85
2022/07/29 02:07:41;;;;;;;3.20;1.70;;;;;;;;;;5098399;28;20235;-85
2022/07/29 02:10:09;;;;;;;1.88;1.77;;;;;;;;;;5098543;28;20208;-85
2022/07/29 02:12:37;;;;;;;2.63;1.60;;;;;;;;;;5096014;28;20244;-85
2022/07/29 02:15:05;;;;;;;2.00;1.80;;;;;;;;;;5098244;28;20231;-85
2022/07/29 02:17:34;;;;;;;3.40;1.80;;;;;;;;;;5095388;28;20236;-85
2022/07/29 02:20:04;;;;;;;1.80;1.70;;;;;;;;;;5095605;28;20285;-85
2022/07/29 02:22:32;;;;;;;2.35;1.70;;;;;;;;;;5095278;28;20232;-85
2022/07/29 02:24:59;;;;;;;5.22;1.83;;;;;;;;;;5095388;28;20224;-85
2022/07/29 02:27:28;;;;;;;3.20;2.00;;;;;;;;;;5095275;28;20252;-84
2022/07/29 02:29:56;;;;;;;2.40;1.75;;;;;;;;;;5095707;28;20204;-85
2022/07/29 02:32:24;;;;;;;2.45;1.60;;;;;;;;;;5094687;28;20685;-85
2022/07/29 02:34:51;;;;;;;2.03;1.85;;;;;;;;;;5095210;28;20704;-83
2022/07/29 02:37:20;;;;;;;1.60;1.50;;;;;;;;;;5094877;28;20236;-83
2022/07/29 02:39:48;;;;;;;2.78;1.77;;;;;;;;;;5096516;28;20209;-83
2022/07/29 02:42:18;;;;;;;2.40;1.90;;;;;;;;;;5095131;28;20207;-85
2022/07/29 02:44:46;;;;;;;4.10;1.83;;;;;;;;;;5095013;28;20573;-85
2022/07/29 02:47:18;;;;;;;2.15;1.95;;;;;;;;;;5094778;28;20216;-85
2022/07/29 02:49:51;;;;;;;2.05;1.85;;;;;;;;;;5094811;28;20205;-83
2022/07/29 02:52:21;;;;;;;2.03;1.73;;;;;;;;;;5099664;28;20826;-84
2022/07/29 02:54:52;;;;;;;5.40;1.73;;;;;;;;;;5101983;28;20224;-83
2022/07/29 02:57:21;;;;;;;3.78;1.88;;;;;;;;;;5098054;28;20232;-83
2022/07/29 02:59:51;;;;;;;2.88;1.88;;;;;;;;;;5096511;28;20200;-84
2022/07/29 03:02:18;;;;;;;4.93;1.85;;;;;;;;;;5095342;28;20232;-84
2022/07/29 03:04:47;;;;;;;3.72;1.80;;;;;;;;;;5094146;28;20220;-83
2022/07/29 03:07:16;;;;;;;2.25;2.00;;;;;;;;;;5093986;28;20209;-84
2022/07/29 03:09:44;;;;;;;2.25;1.95;;;;;;;;;;5096285;28;20215;-84
2022/07/29 03:12:11;;;;;;;2.15;1.92;;;;;;;;;;5093795;28;20243;-84
2022/07/29 03:14:39;;;;;;;3.13;1.90;;;;;;;;;;5094209;28;20224;-84
2022/07/29 03:17:07;;;;;;;2.47;1.80;;;;;;;;;;5093954;28;20212;-83
2022/07/29 03:19:35;;;;;;;3.47;1.90;;;;;;;;;;5093971;28;20201;-83
2022/07/29 03:22:02;;;;;;;1.80;1.70;;;;;;;;;;5092947;28;20683;-83
2022/07/29 03:24:30;;;;;;;3.27;2.00;;;;;;;;;;5094402;28;20273;-84
2022/07/29 03:26:59;;;;;;;3.83;2.13;;;;;;;;;;5093160;28;20687;-84
2022/07/29 03:29:26;;;;;;;2.80;1.77;;;;;;;;;;5094742;28;20209;-84
2022/07/29 03:31:53;;;;;;;2.75;1.80;;;;;;;;;;5093647;28;20211;-84
2022/07/29 03:34:21;;;;;;;2.43;1.73;;;;;;;;;;5093718;28;20240;-84
2022/07/29 03:36:48;;;;;;;2.00;1.85;;;;;;;;;;5094222;28;20205;-82
2022/07/29 03:39:17;;;;;;;2.72;2.08;;;;;;;;;;5095849;28;20236;-84
2022/07/29 03:41:46;;;;;;;3.23;1.47;;;;;;;;;;5094253;28;20258;-83
2022/07/29 03:44:15;;;;;;;3.87;2.00;;;;;;;;;;5093358;28;20253;-84
2022/07/29 03:46:43;;;;;;;3.07;1.80;;;;;;;;;;5094633;28;20212;-85
2022/07/29 03:49:11;;;;;;;4.93;1.87;;;;;;;;;;5093582;28;20243;-84
2022/07/29 03:51:38;;;;;;;2.10;1.80;;;;;;;;;;5094084;28;20660;-84
2022/07/29 03:54:06;;;;;;;2.37;1.80;;;;;;;;;;5093501;28;20735;-84
2022/07/29 03:56:36;;;;;;;4.57;1.80;;;;;;;;;;5094065;28;20200;-84
2022/07/29 03:59:03;;;;;;;2.73;1.90;;;;;;;;;;5093474;28;20240;-82
2022/07/29 04:01:34;;;;;;;2.07;1.90;;;;;;;;;;5093513;28;20209;-84
2022/07/29 04:04:01;;;;;;;3.07;1.80;;;;;;;;;;5093005;28;20626;-84
2022/07/29 04:06:28;;;;;;;3.60;1.87;;;;;;;;;;5093131;28;20211;-84
2022/07/29 04:08:55;;;;;;;5.50;1.93;;;;;;;;;;5092856;28;20239;-84
2022/07/29 04:11:22;;;;;;;4.77;2.10;;;;;;;;;;5093130;28;20669;-84
2022/07/29 04:13:49;;;;;;;2.07;1.87;;;;;;;;;;5092483;28;20707;-83
2022/07/29 04:16:16;;;;;;;3.70;1.93;;;;;;;;;;5093343;28;20229;-84
2022/07/29 04:18:44;;;;;;;7.90;2.87;;;;;;;;;;5092931;28;20262;-83
2022/07/29 04:21:11;;;;;;;9.47;2.13;;;;;;;;;;5092825;28;20216;-83
2022/07/29 04:23:38;;;;;;;10.67;2.30;;;;;;;;;;5092949;28;20228;-84
2022/07/29 04:26:06;;;;;;;6.67;2.10;;;;;;;;;;5098649;28;20236;-83
2022/07/29 04:28:33;;;;;;;4.50;2.13;;;;;;;;;;5097533;28;20716;-84
2022/07/29 04:31:00;;;;;;;4.73;2.00;;;;;;;;;;5095789;28;20216;-84
2022/07/29 04:33:27;;;;;;;2.30;2.10;;;;;;;;;;5095713;28;20228;-83
2022/07/29 04:35:55;;;;;;;2.67;2.20;;;;;;;;;;5096154;28;20216;-83
2022/07/29 04:38:23;;;;;;;5.90;2.13;;;;;;;;;;5096179;28;20289;-83
2022/07/29 04:40:50;;;;;;;3.97;2.20;;;;;;;;;;5096580;28;20220;-83
2022/07/29 04:43:17;;;;;;;6.00;2.17;;;;;;;;;;5096466;28;20233;-84
2022/07/29 04:45:44;;;;;;;3.10;2.20;;;;;;;;;;5096797;28;20255;-85
2022/07/29 04:48:11;;;;;;;8.37;1.87;;;;;;;;;;5096702;28;20239;-85
2022/07/29 04:50:39;;;;;;;3.33;2.07;;;;;;;;;;5096860;28;20212;-85
2022/07/29 04:53:08;;;;;;;2.73;2.10;;;;;;;;;;5095539;28;20244;-84
2022/07/29 04:55:36;;;;;;;5.70;2.30;;;;;;;;;;5094749;28;20224;-85
2022/07/29 04:58:03;;;;;;;4.83;2.30;;;;;;;;;;5092072;28;20661;-85
2022/07/29 05:00:30;;;;;;;2.57;1.93;;;;;;;;;;5076093;28;20217;-86
2022/07/29 05:02:57;;;;;;;4.17;2.23;;;;;;;;;;5071898;28;20235;-85
2022/07/29 05:05:24;;;;;;;2.47;2.20;;;;;;;;;;5072581;28;20229;-86
2022/07/29 05:07:51;;;;;;;6.57;2.27;;;;;;;;;;5072227;28;20715;-85
2022/07/29 05:10:20;;;;;;;4.17;2.03;;;;;;;;;;5072469;28;20209;-86
2022/07/29 05:12:47;;;;;;;6.40;2.40;;;;;;;;;;5072211;28;20237;-85
2022/07/29 05:15:14;;;;;;;7.83;2.80;;;;;;;;;;5073019;28;20229;-86
2022/07/29 05:17:41;;;;;;;4.73;2.37;;;;;;;;;;5071149;28;20243;-84
2022/07/29 05:20:08;;;;;;;3.20;2.10;;;;;;;;;;5072463;28;20212;-87
2022/07/29 05:22:35;;;;;;;3.27;1.93;;;;;;;;;;5082089;28;20233;-85
2022/07/29 05:25:03;;;;;;;4.47;2.40;;;;;;;;;;5073958;28;20233;-85
2022/07/29 05:27:31;;;;;;;2.93;2.30;;;;;;;;;;5073292;28;20232;-85
2022/07/29 05:29:58;;;;;;;4.40;1.97;;;;;;;;;;5073609;28;20201;-85
2022/07/29 05:32:25;;;;;;;2.23;2.13;;;;;;;;;;5073044;28;20263;-85
2022/07/29 05:34:52;;;;;;;3.60;2.60;;;;;;;;;;5075036;28;20233;-85
2022/07/29 05:37:20;;;;;;;3.47;2.60;;;;;;;;;;5073596;28;20756;-84
2022/07/29 05:39:47;;;;;;;4.03;2.23;;;;;;;;;;5073092;28;20591;-84
2022/07/29 05:42:14;;;;;;;3.77;2.10;;;;;;;;;;5077472;28;20311;-86
2022/07/29 05:44:42;;;;;;;5.40;2.33;;;;;;;;;;5074991;28;20233;-86
2022/07/29 05:47:09;;;;;;;2.40;2.20;;;;;;;;;;5078102;28;20217;-86
2022/07/29 05:49:36;;;;;;;4.67;2.27;;;;;;;;;;5073629;28;20211;-84
2022/07/29 05:52:03;;;;;;;2.33;2.10;;;;;;;;;;5072365;28;20696;-85
2022/07/29 05:54:30;;;;;;;2.50;2.30;;;;;;;;;;5072417;28;20575;-85
2022/07/29 05:56:58;;;;;;;3.63;2.37;;;;;;;;;;5077778;28;20209;-84
2022/07/29 05:59:25;;;;;;;5.13;1.90;;;;;;;;;;5072444;28;20213;-84
2022/07/29 06:01:53;;;;;;;5.00;2.37;;;;;;;;;;5071773;28;20216;-84
2022/07/29 06:04:20;;;;;;;5.23;2.40;;;;;;;;;;5072761;28;20240;-85
2022/07/29 06:06:47;;;;;;;5.20;2.30;;;;;;;;;;5073644;28;20232;-85
2022/07/29 06:09:14;;;;;;;4.23;2.30;;;;;;;;;;5073740;28;20829;-84
2022/07/29 06:11:42;;;;;;;3.73;2.40;;;;;;;;;;5074095;28;20201;-83
2022/07/29 06:14:09;;;;;;;4.73;2.20;;;;;;;;;;5072069;28;20250;-84
2022/07/29 06:16:37;;;;;;;2.70;2.00;;;;;;;;;;5072354;28;20232;-83
2022/07/29 06:19:05;;;;;;;8.10;2.37;;;;;;;;;;5072109;28;20244;-84
2022/07/29 06:21:33;;;;;;;4.17;2.33;;;;;;;;;;5072082;28;20217;-84
2022/07/29 06:24:00;;;;;;;6.32;2.63;;;;;;;;;;5081392;28;20233;-84
2022/07/29 06:26:27;;;;;;;8.98;2.78;;;;;;;;;;5072440;28;20209;-83
2022/07/29 06:28:54;;;;;;;2.03;1.83;;;;;;;;;;5074086;28;20255;-84
2022/07/29 06:31:21;;;;;;;4.90;2.50;;;;;;;;;;5075855;28;20201;-83
2022/07/29 06:33:48;;;;;;;8.55;2.58;;;;;;;;;;5083200;28;20235;-84
2022/07/29 06:36:17;;;;;;;3.92;2.33;;;;;;;;;;5081199;28;20229;-84
2022/07/29 06:38:44;;;;;;;3.55;2.10;;;;;;;;;;5090841;28;20323;-84
2022/07/29 06:41:12;;;;;;;3.70;2.22;;;;;;;;;;5074812;28;20700;-84
2022/07/29 06:43:41;;;;;;;3.28;2.03;;;;;;;;;;5074766;28;20233;-85
2022/07/29 06:46:09;;;;;;;4.75;2.28;;;;;;;;;;5087768;28;20236;-84
2022/07/29 06:48:36;;;;;;;12.20;2.50;;;;;;;;;;5095320;28;20281;-85
2022/07/29 06:51:04;;;;;;;3.10;2.58;;;;;;;;;;5090816;28;20785;-83
2022/07/29 06:53:33;;;;;;;4.97;2.45;;;;;;;;;;5074872;28;20237;-85
2022/07/29 06:56:00;;;;;;;7.15;2.55;;;;;;;;;;5076003;28;20230;-84
2022/07/29 06:58:30;;;;;;;3.30;2.20;;;;;;;;;;5086057;28;20233;-86
2022/07/29 07:00:58;;;;;;;4.80;2.20;;;;;;;;;;5074624;28;20703;-85
2022/07/29 07:03:25;;;;;;;6.80;2.50;;;;;;;;;;5075073;28;20244;-85
2022/07/29 07:05:53;;;;;;;2.75;2.40;;;;;;;;;;5076563;28;20734;-85
2022/07/29 07:08:23;;;;;;;4.15;2.38;;;;;;;;;;5082329;28;20577;-83
2022/07/29 07:10:51;;;;;;;4.38;2.10;;;;;;;;;;5074151;28;20220;-84
2022/07/29 07:13:19;;;;;;;3.78;2.00;;;;;;;;;;5073936;28;20237;-84
2022/07/29 07:15:47;;;;;;;4.43;2.15;;;;;;;;;;5074262;28;20237;-85
2022/07/29 07:18:15;;;;;;;4.72;2.40;;;;;;;;;;5074109;28;20807;-85
2022/07/29 07:20:42;;;;;;;4.47;2.38;;;;;;;;;;5074097;28;20241;-85
2022/07/29 07:23:09;;;;;;;4.03;2.30;;;;;;;;;;5073709;28;20249;-86
2022/07/29 07:25:36;;;;;;;4.72;2.30;;;;;;;;;;5074527;28;20236;-86
2022/07/29 07:28:05;;;;;;;2.13;1.90;;;;;;;;;;5096666;28;20224;-80
2022/07/29 07:30:32;;;;;;;3.30;2.40;;;;;;;;;;5111564;28;20254;-80
2022/07/29 07:32:59;;;;;;;4.18;2.15;;;;;;;;;;5108308;28;20254;-81
2022/07/29 07:35:27;;;;;;;2.30;2.10;;;;;;;;;;5109008;28;20275;-82
2022/07/29 07:37:54;;;;;;;3.95;2.00;;;;;;;;;;5095245;28;20237;-82
2022/07/29 07:40:21;;;;;;;2.80;2.50;;;;;;;;;;5084526;28;20210;-82
2022/07/29 07:42:48;;;;;;;3.55;2.40;;;;;;;;;;5082170;28;20233;-82
2022/07/29 07:45:17;;;;;;;5.47;2.30;;;;;;;;;;5091711;28;20232;-83
2022/07/29 07:47:44;;;;;;;3.17;2.25;;;;;;;;;;5100992;28;20248;-83
2022/07/29 07:50:12;;;;;;;4.43;2.20;;;;;;;;;;5099514;28;20211;-80
2022/07/29 07:52:48;;;;;;;5.38;2.53;;;;;;;;;;5099994;28;20231;-82
2022/07/29 07:55:15;;;;;;;2.47;2.00;;;;;;;;;;5108396;28;20232;-82
2022/07/29 07:57:42;;;;;;;4.18;2.33;;;;;;;;;;5106517;28;20309;-82
2022/07/29 08:00:10;;;;;;;4.72;2.40;;;;;;;;;;5093962;28;20202;-83
2022/07/29 08:02:39;;;;;;;5.00;2.33;;;;;;;;;;5085935;28;20778;-82
2022/07/29 08:05:07;;;;;;;4.93;2.30;;;;;;;;;;5081693;28;20316;-81
2022/07/29 08:07:34;;;;;;;5.47;2.00;;;;;;;;;;5079256;28;20252;-82
2022/07/29 08:10:01;;;;;;;5.10;2.13;;;;;;;;;;5079985;28;20213;-82
2022/07/29 08:12:28;;;;;;;4.80;2.40;;;;;;;;;;5079148;28;20228;-83
2022/07/29 08:14:55;;;;;;;3.60;2.15;;;;;;;;;;5075631;28;20236;-83
2022/07/29 08:17:22;;;;;;;5.32;2.38;;;;;;;;;;5074128;28;20240;-83
2022/07/29 08:19:50;;;;;;;4.50;2.42;;;;;;;;;;5074653;28;20209;-83
2022/07/29 08:22:18;;;;;;;4.03;2.15;;;;;;;;;;5075301;28;20236;-83
2022/07/29 08:24:51;;;;;;;2.88;1.92;;;;;;;;;;5077726;28;20221;-83
2022/07/29 08:27:19;;;;;;;2.72;2.20;;;;;;;;;;5076796;28;20224;-83
2022/07/29 08:29:46;;;;;;;5.65;2.15;;;;;;;;;;5079566;28;20206;-83
2022/07/29 08:32:13;;;;;;;3.17;2.28;;;;;;;;;;5084036;28;20209;-80
2022/07/29 08:34:40;;;;;;;6.78;2.25;;;;;;;;;;5079518;28;20240;-80
2022/07/29 08:37:08;;;;;;;4.03;2.63;;;;;;;;;;5074767;28;20220;-80
2022/07/29 08:39:35;;;;;;;3.58;2.97;;;;;;;;;;5079653;28;20669;-80
2022/07/29 08:42:02;;;;;;;4.45;2.08;;;;;;;;;;5094747;28;20223;-80
2022/07/29 08:44:30;;;;;;;3.33;2.10;;;;;;;;;;5078558;28;20294;-80
2022/07/29 08:46:57;;;;;;;3.95;2.35;;;;;;;;;;5076930;28;20209;-81
2022/07/29 08:49:24;;;;;;;5.47;2.25;;;;;;;;;;5077066;28;20665;-80
2022/07/29 08:51:51;;;;;;;4.18;2.20;;;;;;;;;;5088774;28;20204;-79
2022/07/29 08:54:19;;;;;;;2.55;2.10;;;;;;;;;;5095660;28;20240;-80
2022/07/29 08:56:50;;;;;;;4.88;2.50;;;;;;;;;;5098908;28;20212;-80
2022/07/29 08:59:17;;;;;;;4.00;2.20;;;;;;;;;;5094391;28;20294;-79
2022/07/29 09:01:44;;;;;;;4.07;2.00;;;;;;;;;;5097077;28;20620;-80
2022/07/29 09:04:12;;;;;;;2.00;1.90;;;;;;;;;;5104057;28;20251;-81
2022/07/29 09:06:43;;;;;;;2.35;2.15;;;;;;;;;;5111469;28;20205;-81
2022/07/29 09:09:10;;;;;;;4.93;2.15;;;;;;;;;;5108427;28;20240;-81
2022/07/29 09:11:39;;;;;;;2.28;2.00;;;;;;;;;;5109528;28;20208;-81
2022/07/29 09:14:06;;;;;;;4.18;2.28;;;;;;;;;;5104776;28;20271;-81
2022/07/29 09:16:45;;;;;;;3.50;2.10;;;;;;;;;;5108595;28;20196;-80
2022/07/29 09:19:20;;;;;;;2.95;2.60;;;;;;;;;;5102840;28;20259;-81
2022/07/29 09:22:00;;;;;;;2.55;2.10;;;;;;;;;;5097699;28;20208;-80
2022/07/29 09:24:28;;;;;;;3.90;2.00;;;;;;;;;;5106904;28;20284;-81
2022/07/29 09:26:57;;;;;;;3.88;2.33;;;;;;;;;;5108231;28;20219;-81
2022/07/29 09:29:25;;;;;;;2.75;2.10;;;;;;;;;;5109706;28;20228;-81
2022/07/29 09:31:52;;;;;;;3.80;2.25;;;;;;;;;;5103757;28;20205;-80
2022/07/29 09:34:23;;;;;;;3.15;2.13;;;;;;;;;;5101157;28;20236;-80
2022/07/29 09:36:51;;;;;;;2.70;2.50;;;;;;;;;;5100680;28;20204;-80
2022/07/29 09:39:30;;;;;;;2.50;2.20;;;;;;;;;;5101557;28;20879;-79
2022/07/29 09:41:59;;;;;;;5.22;2.10;;;;;;;;;;5098923;28;20204;-80
2022/07/29 09:44:27;;;;;;;2.97;2.05;;;;;;;;;;5105117;28;20233;-80
2022/07/29 09:46:55;;;;;;;2.67;2.15;;;;;;;;;;5106847;28;20204;-81
2022/07/29 09:49:22;;;;;;;2.05;1.67;;;;;;;;;;5100128;28;20280;-79
2022/07/29 09:52:00;;;;;;;2.60;1.98;;;;;;;;;;5101082;28;20270;-82
2022/07/29 09:54:28;;;;;;;2.45;1.95;;;;;;;;;;5105162;28;20232;-84
2022/07/29 09:56:55;;;;;;;3.60;2.17;;;;;;;;;;5105720;28;20215;-80
2022/07/29 09:59:26;;;;;;;2.45;2.20;;;;;;;;;;5091942;28;20221;-80
2022/07/29 10:01:53;;;;;;;2.38;1.90;;;;;;;;;;5079109;28;20206;-79
2022/07/29 10:04:20;;;;;;;2.88;2.10;;;;;;;;;;5082333;28;20233;-84
2022/07/29 10:06:58;;;;;;;2.38;2.17;;;;;;;;;;5076187;28;20201;-84
2022/07/29 10:09:25;;;;;;;2.20;1.98;;;;;;;;;;5076240;28;20255;-84
2022/07/29 10:12:04;;;;;;;3.90;2.13;;;;;;;;;;5075765;28;20264;-84
2022/07/29 10:14:33;;;;;;;2.05;1.88;;;;;;;;;;5075588;28;20231;-84
2022/07/29 10:17:01;;;;;;;2.28;1.95;;;;;;;;;;5075121;28;20233;-84
2022/07/29 10:19:28;;;;;;;3.83;2.35;;;;;;;;;;5075763;28;20685;-83
2022/07/29 10:21:55;;;;;;;2.40;2.05;;;;;;;;;;5075208;28;20217;-84
2022/07/29 10:24:23;;;;;;;2.30;2.10;;;;;;;;;;5075948;28;20225;-84
2022/07/29 10:26:50;;;;;;;3.03;2.15;;;;;;;;;;5076228;28;20578;-83
2022/07/29 10:29:17;;;;;;;2.78;2.47;;;;;;;;;;5075555;28;20237;-84
2022/07/29 10:31:50;;;;;;;2.38;2.17;;;;;;;;;;5076452;28;20669;-84
2022/07/29 10:34:22;;;;;;;2.30;2.03;;;;;;;;;;5075599;28;20252;-84
2022/07/29 10:36:54;;;;;;;2.72;1.95;;;;;;;;;;5076117;28;20634;-84
2022/07/29 10:39:29;;;;;;;3.67;1.98;;;;;;;;;;5075278;28;20685;-83
2022/07/29 10:42:03;;;;;;;2.95;2.40;;;;;;;;;;5075281;28;20211;-84
2022/07/29 10:44:31;;;;;;;2.28;2.10;;;;;;;;;;5075129;28;20315;-84
2022/07/29 10:47:00;;;;;;;3.22;1.85;;;;;;;;;;5074499;28;20209;-84
2022/07/29 10:49:29;;;;;;;2.28;2.08;;;;;;;;;;5075552;28;20217;-84
2022/07/29 10:52:00;;;;;;;2.83;2.38;;;;;;;;;;5074932;28;20554;-83
2022/07/29 10:54:42;;;;;;;2.10;1.95;;;;;;;;;;5075077;28;20693;-83
2022/07/29 10:57:13;;;;;;;3.20;2.15;;;;;;;;;;5074138;28;20201;-84
2022/07/29 10:59:40;;;;;;;3.70;2.42;;;;;;;;;;5075164;28;20233;-84
2022/07/29 11:02:22;;;;;;;2.30;2.10;;;;;;;;;;5074214;28;20213;-84
2022/07/29 11:05:04;;;;;;;2.10;1.88;;;;;;;;;;5088337;28;20232;-83
2022/07/29 11:07:31;;;;;;;2.10;1.90;;;;;;;;;;5086234;28;20275;-83
2022/07/29 11:10:18;;;;;;;2.97;2.00;;;;;;;;;;5074421;28;20288;-85
2022/07/29 11:12:49;;;;;;;4.15;1.88;;;;;;;;;;5089049;28;20236;-86
2022/07/29 11:15:20;;;;;;;2.30;2.10;;;;;;;;;;5092136;28;20755;-84
2022/07/29 11:18:11;;;;;;;2.33;2.08;;;;;;;;;;5084648;28;20224;-86
2022/07/29 11:20:44;;;;;;;2.13;1.92;;;;;;;;;;5076746;28;20647;-85
2022/07/29 11:23:27;;;;;;;2.75;2.00;;;;;;;;;;5074849;28;20238;-85
2022/07/29 11:26:15;;;;;;;2.10;1.85;;;;;;;;;;5088676;28;20578;-85
2022/07/29 11:28:52;;;;;;;3.30;1.83;;;;;;;;;;5083460;28;20228;-85
2022/07/29 11:31:22;;;;;;;2.38;2.00;;;;;;;;;;5093064;28;20204;-86
2022/07/29 11:33:50;;;;;;;2.42;1.98;;;;;;;;;;5093053;28;20229;-85
2022/07/29 11:36:19;;;;;;;2.20;2.00;;;;;;;;;;5093575;28;20764;-86
2022/07/29 11:38:46;;;;;;;2.22;1.90;;;;;;;;;;5093274;28;20844;-85
2022/07/29 11:41:29;;;;;;;2.00;1.90;;;;;;;;;;5093626;28;20208;-86
2022/07/29 11:43:57;;;;;;;2.30;2.10;;;;;;;;;;5088508;28;20225;-85
2022/07/29 11:46:43;;;;;;;2.65;2.28;;;;;;;;;;5088916;28;20223;-86
2022/07/29 11:49:11;;;;;;;1.98;1.88;;;;;;;;;;5081405;28;20224;-86
2022/07/29 11:51:42;;;;;;;1.90;1.80;;;;;;;;;;5072871;28;20193;-85
2022/07/29 11:54:10;;;;;;;2.25;2.05;;;;;;;;;;5072593;28;20243;-86
2022/07/29 11:56:40;;;;;;;1.75;1.63;;;;;;;;;;5072948;28;20323;-87
2022/07/29 11:59:14;;;;;;;2.30;2.15;;;;;;;;;;5072167;28;20743;-86
2022/07/29 12:01:53;;;;;;;2.63;1.98;;;;;;;;;;5073537;28;20211;-86
2022/07/29 12:04:20;;;;;;;1.90;1.80;;;;;;;;;;5079952;28;20235;-85
2022/07/29 12:06:52;;;;;;;2.15;1.90;;;;;;;;;;5093485;28;20249;-86
2022/07/29 12:09:19;;;;;;;2.45;1.90;;;;;;;;;;5089582;28;20231;-87
2022/07/29 12:11:47;;;;;;;3.08;2.08;;;;;;;;;;5081956;28;20629;-88
2022/07/29 12:14:26;;;;;;;2.20;1.95;;;;;;;;;;5084039;28;20246;-87
2022/07/29 12:16:53;;;;;;;3.33;2.10;;;;;;;;;;5092313;28;20228;-86
2022/07/29 12:19:20;;;;;;;2.88;2.33;;;;;;;;;;5083374;28;20232;-87
2022/07/29 12:21:48;;;;;;;2.35;1.88;;;;;;;;;;5072408;28;20201;-87
2022/07/29 12:24:16;;;;;;;3.90;2.08;;;;;;;;;;5087839;28;20239;-88
2022/07/29 12:26:50;;;;;;;3.85;2.00;;;;;;;;;;5092440;28;20691;-87
2022/07/29 12:29:17;;;;;;;2.40;2.30;;;;;;;;;;5092414;28;20232;-88
2022/07/29 12:31:46;;;;;;;2.40;2.10;;;;;;;;;;5093157;28;20200;-88
2022/07/29 12:34:13;;;;;;;4.28;2.00;;;;;;;;;;5092731;28;20238;-88
2022/07/29 12:36:41;;;;;;;1.85;1.75;;;;;;;;;;5092762;28;20235;-88
2022/07/29 12:39:08;;;;;;;1.65;1.55;;;;;;;;;;5091972;28;20227;-87
2022/07/29 12:41:37;;;;;;;2.30;2.10;;;;;;;;;;5092298;28;20231;-88
2022/07/29 12:44:04;;;;;;;2.38;2.10;;;;;;;;;;5091189;28;20231;-86
2022/07/29 12:46:31;;;;;;;2.35;2.25;;;;;;;;;;5085289;28;20574;-88
2022/07/29 12:48:58;;;;;;;2.13;2.03;;;;;;;;;;5077844;28;20236;-86
2022/07/29 12:51:33;;;;;;;2.10;1.88;;;;;;;;;;5087605;28;20203;-88
2022/07/29 12:54:04;;;;;;;2.22;1.88;;;;;;;;;;5080804;28;20250;-87
2022/07/29 12:56:31;;;;;;;1.95;1.85;;;;;;;;;;5072430;28;20232;-88
2022/07/29 12:58:59;;;;;;;3.40;2.22;;;;;;;;;;5071921;28;20258;-89
2022/07/29 13:01:27;;;;;;;2.78;2.47;;;;;;;;;;5072352;28;20235;-87
2022/07/29 13:03:56;;;;;;;3.00;2.35;;;;;;;;;;5079789;28;20703;-88
2022/07/29 13:06:30;;;;;;;2.17;1.95;;;;;;;;;;5080466;28;20193;-88
2022/07/29 13:09:15;;;;;;;2.10;2.00;;;;;;;;;;5080665;28;20601;-85
2022/07/29 13:11:43;;;;;;;2.10;1.90;;;;;;;;;;5093378;28;20211;-86
2022/07/29 13:14:13;;;;;;;2.97;2.40;;;;;;;;;;5092518;28;20295;-90
2022/07/29 13:16:55;;;;;;;2.72;2.33;;;;;;;;;;5085216;28;20727;-87
2022/07/29 13:19:33;;;;;;;2.00;1.80;;;;;;;;;;5082141;28;20231;-86
2022/07/29 13:22:00;;;;;;;1.92;1.80;;;;;;;;;;5092101;28;20217;-88
2022/07/29 13:24:27;;;;;;;3.50;1.85;;;;;;;;;;5092119;28;20228;-85
2022/07/29 13:26:54;;;;;;;2.03;1.92;;;;;;;;;;5092670;28;20200;-85
2022/07/29 13:29:23;;;;;;;2.90;2.28;;;;;;;;;;5093207;28;20231;-84
2022/07/29 13:31:50;;;;;;;2.40;1.90;;;;;;;;;;5097767;28;20204;-84
2022/07/29 13:34:19;;;;;;;4.35;1.98;;;;;;;;;;5104529;28;20232;-83
2022/07/29 13:36:46;;;;;;;2.75;2.40;;;;;;;;;;5100682;28;20220;-86
2022/07/29 13:39:13;;;;;;;2.30;2.17;;;;;;;;;;5090834;28;20244;-87
2022/07/29 13:41:40;;;;;;;2.55;2.03;;;;;;;;;;5091616;28;20208;-86
2022/07/29 13:44:07;;;;;;;2.15;2.05;;;;;;;;;;5091046;28;20244;-86
2022/07/29 13:46:36;;;;;;;2.55;2.00;;;;;;;;;;5092207;28;20211;-86
2022/07/29 13:49:03;;;;;;;2.35;2.15;;;;;;;;;;5091003;28;20235;-86
2022/07/29 13:51:30;;;;;;;2.40;2.20;;;;;;;;;;5092241;28;20204;-87
2022/07/29 13:53:57;;;;;;;2.40;2.20;;;;;;;;;;5090845;28;20224;-87
2022/07/29 13:56:24;;;;;;;2.35;2.15;;;;;;;;;;5071952;28;20240;-85
2022/07/29 13:58:51;;;;;;;2.30;2.03;;;;;;;;;;5078080;28;20228;-85
2022/07/29 14:01:18;;;;;;;2.13;1.92;;;;;;;;;;5090974;28;20288;-85
2022/07/29 14:03:46;;;;;;;2.42;2.20;;;;;;;;;;5091369;28;20239;-86
2022/07/29 14:06:14;;;;;;;3.10;2.13;;;;;;;;;;5091743;28;20216;-86
2022/07/29 14:08:41;;;;;;;2.72;2.30;;;;;;;;;;5091403;28;20260;-86
2022/07/29 14:11:08;;;;;;;3.03;2.35;;;;;;;;;;5092138;28;20193;-87
2022/07/29 14:13:35;;;;;;;2.40;2.20;;;;;;;;;;5091057;28;20236;-86
2022/07/29 14:16:02;;;;;;;2.20;2.00;;;;;;;;;;5091097;28;20236;-86
2022/07/29 14:18:29;;;;;;;5.15;3.45;;;;;;;;;;5090649;28;20236;-84
2022/07/29 14:20:58;;;;;;;2.15;2.00;;;;;;;;;;5091012;28;20553;-83
2022/07/29 14:23:25;;;;;;;3.80;2.20;;;;;;;;;;5089565;28;20236;-84
2022/07/29 14:25:52;;;;;;;2.25;2.05;;;;;;;;;;5091007;28;20320;-86
2022/07/29 14:28:19;;;;;;;2.60;1.90;;;;;;;;;;5090885;28;20604;-83
2022/07/29 14:30:47;;;;;;;4.68;1.98;;;;;;;;;;5091805;28;20217;-84
2022/07/29 14:33:14;;;;;;;2.38;2.10;;;;;;;;;;5094461;28;20243;-85
2022/07/29 14:35:42;;;;;;;2.72;2.00;;;;;;;;;;5083608;28;20232;-85
2022/07/29 14:38:10;;;;;;;2.95;2.22;;;;;;;;;;5084905;28;20229;-85
2022/07/29 14:40:37;;;;;;;3.65;2.60;;;;;;;;;;5091654;28;20215;-85
2022/07/29 14:43:04;;;;;;;2.17;2.08;;;;;;;;;;5091518;28;20233;-85
2022/07/29 14:45:32;;;;;;;3.72;2.22;;;;;;;;;;5094263;28;20236;-86
2022/07/29 14:48:00;;;;;;;2.33;1.85;;;;;;;;;;5093514;28;20259;-86
2022/07/29 14:50:27;;;;;;;3.08;2.22;;;;;;;;;;5098243;28;20205;-85
2022/07/29 14:52:54;;;;;;;2.92;2.40;;;;;;;;;;5098206;28;20232;-85
2022/07/29 14:55:23;;;;;;;4.72;2.40;;;;;;;;;;5098030;28;20229;-84